Latest Coastal Weather Observations for Melbourne (Olympic Park)

IDV60701

Issued at 4:12 pm EST Monday 20 May 2024 (issued every 10 minutes, with the page automatically refreshed every 10 minutes)

About coastal observations | Map of coastal stations | Coastal observations for VIC | Marine services | Other Formats
Station Details ID: 086338 Name: MELBOURNE (OLYMPIC PARK) Lat: -37.83 Lon: 144.98 Height: 7.53 m
Data from the previous 72 hours. | See also: Recent months at Melbourne (Olympic Park)
Date/Time
EST
Wind Sea
Height
m
Swell Vis
km
Cloud Weather Temp
°C
Press
MSL
hPa
Rain since
9am
mm
Dir  Spd
kts
Gust
kts
Height
m
Period
s
Dir
20/04:00pm SSW 6 11 - - - - 10 - - 13.6 1027.9 0.8
20/03:30pm SSW 6 11 - - - - 10 - - 13.6 1027.7 0.8
20/03:00pm SSW 6 11 - - - - 10 - - 13.9 1027.5 0.8
20/02:30pm SSW 7 12 - - - - 10 - - 14.3 1027.4 0.8
20/02:00pm SSW 6 9 - - - - 10 - - 14.4 1027.3 0.8
20/01:30pm SSW 7 11 - - - - 10 - - 13.9 1027.5 0.8
20/01:00pm SW 5 9 - - - - 10 - - 14.2 1027.7 0.8
20/12:30pm SSW 6 10 - - - - 10 - - 13.8 1027.8 0.8
20/12:00pm SW 5 8 - - - - 10 - - 13.8 1028.0 0.8
20/11:30am SSW 5 10 - - - - 10 - - 14.0 1028.2 0.8
20/11:00am S 2 5 - - - - 10 - - 13.6 1028.3 0.8
20/10:30am SW 2 6 - - - - 10 - - 12.8 1028.2 0.8
20/10:22am WSW 2 5 - - - - 10 - - 12.5 1028.1 0.8
20/10:00am SSE 1 4 - - - - 7 - - 11.8 1028.0 0.6
20/09:44am WSW 4 7 - - - - 7 - - 11.6 1027.8 0.2
20/09:30am W 5 8 - - - - 10 - - 11.6 1027.7 0.0
20/09:10am WSW 1 8 - - - - 10 - - 11.3 1027.5 0.0
20/09:00am SW 4 6 - - - - 7 - Showers 11.0 1027.4 3.2
20/08:52am W 4 6 - - - - 7 - - 10.9 1027.2 3.2
20/08:30am WSW 3 7 - - - - 10 - - 10.6 1027.1 3.0
20/08:00am WSW 5 8 - - - - 10 - - 10.3 1026.8 3.0
20/07:30am WSW 5 10 - - - - 10 - - 10.3 1026.4 3.0
20/07:00am W 4 6 - - - - 10 - - 10.3 1026.0 2.8
20/06:30am W 4 6 - - - - 10 - - 10.6 1025.7 2.8
20/06:10am W 5 9 - - - - 10 - - 10.7 1025.7 2.8
20/06:00am W 5 8 - - - - 7 - Showers 10.7 1025.6 2.8
20/05:49am W 5 9 - - - - 6 - - 10.7 1025.5 2.6
20/05:30am W 4 8 - - - - 10 - - 10.7 1025.3 2.4
20/05:09am W 5 9 - - - - 10 - - 10.7 1025.1 2.4
20/05:00am W 4 8 - - - - 10 - - 10.7 1025.0 2.4
20/04:51am W 5 9 - - - - 7 - - 10.7 1024.9 2.2
20/04:30am W 5 7 - - - - 10 - - 10.7 1024.8 2.2
20/04:25am W 5 8 - - - - 9 - - 10.7 1024.7 2.2
20/04:00am W 5 9 - - - - 5 - - 10.6 1024.4 2.0
20/03:39am W 4 7 - - - - 6 - - 10.8 1024.5 1.8
20/03:30am W 4 8 - - - - 10 - - 10.9 1024.4 1.8
20/03:00am W 4 7 - - - - 10 - - 10.9 1024.5 1.8
20/02:30am WSW 4 8 - - - - 10 - - 11.1 1024.4 1.8
20/02:09am W 4 8 - - - - 10 - - 11.0 1024.4 1.8
20/02:00am W 4 6 - - - - 8 - - 10.9 1024.3 1.8
20/01:51am WSW 3 6 - - - - 7 - - 11.0 1024.3 1.8
20/01:30am W 3 7 - - - - 10 - - 11.0 1024.2 1.8
20/01:00am W 6 12 - - - - 10 - - 11.3 1024.2 1.8
20/12:33am W 3 6 - - - - 10 - - 11.4 1024.2 1.8
20/12:30am W 3 6 - - - - 10 - - 11.3 1024.3 1.8
20/12:14am SW 6 13 - - - - 7 - - 11.5 1024.5 1.8
20/12:00am WSW 4 8 - - - - 10 - - 12.1 1024.4 1.8
 
Date/Time
EST
Wind Sea
Height
m
Swell Vis
km
Cloud Weather Temp
°C
Press
MSL
hPa
Rain since
9am
mm
Dir  Spd
kts
Gust
kts
Height
m
Period
s
Dir
19/11:30pm WSW 3 8 - - - - 10 - - 12.0 1024.3 1.8
19/11:00pm W 3 6 - - - - 10 - - 12.1 1024.4 1.8
19/10:30pm W 4 7 - - - - 10 - - 12.3 1024.5 1.8
19/10:00pm WSW 4 6 - - - - 10 - - 12.4 1024.4 1.8
19/09:30pm WSW 3 7 - - - - 10 - - 12.8 1024.6 1.8
19/09:00pm WSW 3 6 - - - - 10 - - 12.9 1024.5 1.8
19/08:30pm W 4 8 - - - - 10 - - 13.2 1024.4 1.8
19/08:00pm WSW 3 7 - - - - 10 - - 13.5 1024.3 1.8
19/07:30pm SSW 2 6 - - - - 10 - - 13.4 1024.2 1.8
19/07:00pm SW 4 7 - - - - 10 - - 13.2 1024.0 1.8
19/06:30pm SSW 3 6 - - - - 10 - - 13.1 1023.7 1.8
19/06:00pm SSW 5 9 - - - - 10 - Showers 13.5 1023.4 1.8
19/05:30pm SSW 3 6 - - - - 10 - - 13.6 1023.0 1.6
19/05:00pm SSW 4 8 - - - - 10 - - 13.8 1022.7 1.6
19/04:30pm SW 1 3 - - - - 10 - - 13.8 1022.7 1.6
19/04:00pm SSW 3 6 - - - - 10 - - 13.7 1022.5 1.6
19/03:30pm WSW 2 6 - - - - 10 - - 14.5 1022.3 1.6
19/03:00pm WNW 1 4 - - - - 10 - Rain 14.1 1022.3 1.6
19/02:33pm WNW 4 9 - - - - 10 - - 13.8 1022.4 1.6
19/02:30pm W 4 9 - - - - 10 - - 13.8 1022.4 1.6
19/02:00pm WSW 5 11 - - - - 3 - - 13.3 1022.7 1.0
19/01:35pm W 5 9 - - - - 7 - - 13.8 1022.8 0.0
19/01:30pm W 6 9 - - - - 10 - - 14.0 1022.8 0.0
19/01:27pm W 6 11 - - - - 10 - - 14.1 1022.8 0.0
19/01:11pm WNW 6 11 - - - - 7 - - 14.1 1022.8 0.0
19/01:00pm WNW 5 13 - - - - 10 - - 15.0 1022.7 0.0
19/12:30pm W 5 10 - - - - 10 - - 15.1 1023.2 0.0
19/12:00pm WSW 6 14 - - - - 10 - - 14.8 1023.7 0.0
19/11:30am W 3 8 - - - - 10 - - 14.5 1024.1 0.0
19/11:00am NW 3 6 - - - - 10 - - 13.7 1024.5 0.0
19/10:30am WNW 4 7 - - - - 10 - - 13.3 1024.5 0.0
19/10:00am NW 4 6 - - - - 10 - - 12.4 1024.9 0.0
19/09:30am NNW 3 6 - - - - 10 - - 11.8 1025.1 0.0
19/09:00am NW 3 7 - - - - 10 - - 11.4 1025.3 0.0
19/08:30am NW 4 6 - - - - 10 - - 11.1 1025.3 0.0
19/08:00am NW 4 7 - - - - 10 - - 10.7 1025.3 0.0
19/07:30am NW 4 7 - - - - 10 - - 10.5 1025.3 0.0
19/07:00am NW 5 8 - - - - 10 - - 10.3 1025.1 0.0
19/06:30am NW 5 8 - - - - 10 - - 10.3 1025.2 0.0
19/06:00am NW 5 7 - - - - 10 - - 10.4 1025.5 0.0
19/05:30am WNW 5 10 - - - - 10 - - 10.3 1025.7 0.0
19/05:00am NW 4 7 - - - - 10 - - 10.0 1025.6 0.0
19/04:30am NW 5 7 - - - - 10 - - 10.1 1025.7 0.0
19/04:00am NW 6 14 - - - - 10 - - 9.9 1026.0 0.0
19/03:30am NW 5 7 - - - - 10 - - 9.6 1026.2 0.0
19/03:00am NW 6 8 - - - - 10 - - 9.2 1026.4 0.0
19/02:30am NW 6 9 - - - - 10 - - 9.0 1026.5 0.0
19/02:00am CALM 0 0 - - - - 10 - - 8.3 1027.2 0.0
19/01:30am NW 3 6 - - - - 10 - - 8.6 1027.7 0.0
19/01:00am CALM 0 0 - - - - 10 - - 7.3 1028.1 0.0
19/12:30am CALM 0 0 - - - - 10 - - 7.2 1028.3 0.0
19/12:00am CALM 0 0 - - - - 10 - - 7.3 1028.6 0.0
 
Date/Time
EST
Wind Sea
Height
m
Swell Vis
km
Cloud Weather Temp
°C
Press
MSL
hPa
Rain since
9am
mm
Dir  Spd
kts
Gust
kts
Height
m
Period
s
Dir
18/11:30pm NNE 1 4 - - - - 10 - - 8.6 1029.0 0.0
18/11:00pm SW 1 7 - - - - 10 - - 8.2 1029.3 0.0
18/10:30pm CALM 0 0 - - - - 10 - - 6.5 1029.4 0.0
18/10:00pm CALM 0 0 - - - - 10 - - 6.4 1029.6 0.0
18/09:30pm CALM 0 0 - - - - 10 - - 6.3 1029.8 0.0
18/09:00pm CALM 0 0 - - - - 10 - - 6.7 1029.7 0.0
18/08:30pm CALM 0 0 - - - - 10 - - 7.0 1030.0 0.0
18/08:00pm CALM 0 0 - - - - 10 - - 7.7 1029.9 0.0
18/07:30pm CALM 0 0 - - - - 10 - - 8.0 1030.4 0.0
18/07:00pm CALM 0 0 - - - - 10 - - 8.4 1030.5 0.0
18/06:30pm SW 1 3 - - - - 10 - - 9.0 1030.5 0.0
18/06:00pm CALM 0 0 - - - - 10 - - 10.0 1030.3 0.0
18/05:30pm SW 2 5 - - - - 10 - - 11.1 1030.5 0.0
18/05:00pm SSW 4 7 - - - - 10 - - 11.7 1030.6 0.0
18/04:30pm SSW 4 7 - - - - 10 - - 12.4 1030.8 0.0
18/04:00pm SSW 4 9 - - - - 10 - - 12.9 1031.0 0.0
18/03:30pm SSW 7 12 - - - - 10 - - 13.3 1030.8 0.0
18/03:00pm SW 6 12 - - - - 10 - - 13.3 1031.0 0.0
18/02:30pm SSW 6 9 - - - - 10 - - 13.4 1031.2 0.0
18/02:00pm S 5 8 - - - - 10 - - 13.9 1031.2 0.0
18/01:30pm SSW 8 14 - - - - 10 - - 13.4 1031.8 0.0
18/01:00pm SSE 6 11 - - - - 10 - - 13.6 1032.0 0.0
18/12:30pm SE 5 10 - - - - 10 - - 13.2 1032.2 0.0
18/12:00pm SE 7 12 - - - - 10 - - 13.1 1032.9 0.0
18/11:30am SSE 6 14 - - - - 10 - - 12.8 1033.4 0.0
18/11:00am SSE 7 12 - - - - 10 - - 12.5 1033.5 0.0
18/10:30am SE 7 13 - - - - 10 - - 12.0 1033.4 0.0
18/10:00am SE 6 10 - - - - 10 - - 11.8 1033.3 0.0
18/09:30am SE 5 9 - - - - 10 - - 11.1 1033.0 0.0
18/09:00am SE 5 9 - - - - 10 - - 10.6 1032.7 1.8
18/08:30am SSE 5 9 - - - - 10 - - 9.7 1032.5 1.8
18/08:00am S 4 7 - - - - 10 - - 8.8 1032.5 1.8
18/07:30am SSE 2 4 - - - - 10 - - 8.0 1032.5 1.8
18/07:00am S 4 7 - - - - 10 - - 9.1 1031.9 1.8
18/06:30am SSE 5 8 - - - - 10 - - 9.4 1031.7 1.8
18/06:00am SSE 5 8 - - - - 10 - - 9.7 1031.4 1.8
18/05:30am SSE 6 11 - - - - 10 - - 9.9 1031.3 1.8
18/05:00am SSE 6 10 - - - - 10 - - 10.0 1031.2 1.8
18/04:30am SSE 7 13 - - - - 10 - - 10.2 1031.1 1.8
18/04:00am SSE 6 10 - - - - 10 - - 10.3 1030.9 1.8
18/03:30am SSE 6 10 - - - - 10 - - 10.3 1030.9 1.8
18/03:00am SSE 6 10 - - - - 10 - - 10.3 1031.0 1.8
18/02:30am SSE 6 9 - - - - 10 - - 10.4 1031.1 1.8
18/02:00am SSE 4 8 - - - - 10 - - 9.9 1031.0 1.8
18/01:30am SSE 4 7 - - - - 10 - - 9.7 1031.0 1.8
18/01:00am SSE 7 11 - - - - 10 - - 10.6 1031.0 1.8
18/12:30am S 7 11 - - - - 10 - - 11.0 1030.8 1.8
18/12:00am SSE 7 12 - - - - 10 - - 10.7 1030.8 1.8
 
Date/Time
EST
Wind Sea
Height
m
Swell Vis
km
Cloud Weather Temp
°C
Press
MSL
hPa
Rain since
9am
mm
Dir  Spd
kts
Gust
kts
Height
m
Period
s
Dir
17/11:30pm SSE 6 12 - - - - 10 - - 10.9 1030.7 1.8
17/11:00pm S 8 16 - - - - 10 - - 11.7 1030.4 1.8
17/10:30pm SSE 5 9 - - - - 10 - - 11.2 1030.4 1.6
17/10:00pm S 6 13 - - - - 10 - - 11.6 1030.1 1.4
17/09:30pm SSE 6 11 - - - - 10 - - 11.3 1030.3 1.4
17/09:00pm S 7 14 - - - - 10 - Showers 10.9 1030.1 1.4
17/08:30pm SSE 3 7 - - - - 10 - - 11.5 1029.6 1.0
17/08:00pm S 6 14 - - - - 10 - - 12.1 1029.6 0.6
17/07:30pm S 10 15 - - - - 10 - - 12.5 1029.4 0.6
17/07:00pm SSW 7 12 - - - - 10 - - 13.4 1029.0 0.6
17/06:30pm S 6 13 - - - - 10 - - 13.4 1028.8 0.6
17/06:00pm S 7 15 - - - - 10 - - 13.4 1028.6 0.6
17/05:30pm S 7 15 - - - - 10 - - 13.4 1028.2 0.6
17/05:00pm S 7 14 - - - - 10 - - 13.8 1027.9 0.6
17/04:30pm S 8 14 - - - - 10 - - 14.1 1027.5 0.6

Other formats

Comma delimited format used in spreadsheet applications
http://www.bom.gov.au/fwo/IDV60701/IDV60701.95936.axf

JavaScript Object Notation format (JSON) in row-major order
http://www.bom.gov.au/fwo/IDV60701/IDV60701.95936.json

Data quality

Most of these data are generated automatically and are frequently updated. Quality checks on data are not normally performed. It is possible for incorrect values to appear. Refer to information at About Latest Weather Observations and please check the disclaimer before using these data.